Time;durP1;ratioP1;P1;durP2;ratioP2;P2;SDS_P1;SDS_P2;PMS_P1;PMS_P2;Temp;Humidity;BMP_temperature;BMP_pressure;BME280_temperature;BME280_humidity;BME280_pressure;Samples;Min_cycle;Max_cycle;Signal;HPM_P1;HPM_P2
2021/10/11 00:02:06;;;;;;;24.90;14.70;;;;;;;12.00;100.00;101828.28;5096927;28;20031;-70
2021/10/11 00:04:52;;;;;;;29.02;15.13;;;;;;;11.35;100.00;101830.28;5096577;28;20028;-71
2021/10/11 00:07:38;;;;;;;29.70;16.75;;;;;;;11.37;100.00;101826.78;5096411;28;20052;-71
2021/10/11 00:10:24;;;;;;;25.50;15.52;;;;;;;11.47;100.00;101817.13;5095599;28;20035;-71
2021/10/11 00:13:10;;;;;;;26.45;15.63;;;;;;;11.18;100.00;101822.47;5095945;28;20024;-71
2021/10/11 00:15:56;;;;;;;28.05;15.15;;;;;;;11.51;100.00;101806.63;5096333;28;20173;-70
2021/10/11 00:18:42;;;;;;;26.83;16.20;;;;;;;11.22;100.00;101802.34;5095458;28;20031;-71
2021/10/11 00:21:27;;;;;;;34.20;16.35;;;;;;;10.99;100.00;101798.91;5096544;28;20020;-72
2021/10/11 00:24:13;;;;;;;27.35;16.08;;;;;;;11.15;100.00;101796.25;5095999;28;20363;-71
2021/10/11 00:26:59;;;;;;;36.22;16.50;;;;;;;10.90;100.00;101784.06;5095754;28;20024;-71
2021/10/11 00:29:45;;;;;;;35.38;16.58;;;;;;;10.75;100.00;101785.81;5081709;28;20024;-70
2021/10/11 00:32:31;;;;;;;35.97;16.15;;;;;;;10.95;100.00;101781.44;5095755;28;20020;-71
2021/10/11 00:35:16;;;;;;;31.35;16.33;;;;;;;10.62;100.00;101778.88;5095971;28;20032;-70
2021/10/11 00:38:02;;;;;;;29.52;16.65;;;;;;;10.65;100.00;101782.34;5096137;28;20456;-70
2021/10/11 00:40:48;;;;;;;32.35;17.13;;;;;;;10.85;100.00;101772.69;5095650;28;20028;-71
2021/10/11 00:43:34;;;;;;;34.47;17.13;;;;;;;10.78;100.00;101776.22;5095479;28;20345;-71
2021/10/11 00:46:19;;;;;;;31.67;16.70;;;;;;;10.67;100.00;101783.22;5095204;28;20034;-71
2021/10/11 00:49:05;;;;;;;31.48;16.75;;;;;;;10.89;100.00;101777.06;5094967;28;20053;-71
2021/10/11 00:51:51;;;;;;;36.72;16.83;;;;;;;10.63;100.00;101776.25;5095582;28;20107;-71
2021/10/11 00:54:37;;;;;;;31.88;16.63;;;;;;;10.86;100.00;101768.34;5095845;28;20429;-71
2021/10/11 00:57:23;;;;;;;31.00;17.10;;;;;;;10.77;100.00;101779.72;5080413;28;20437;-70
2021/10/11 01:00:09;;;;;;;30.92;16.52;;;;;;;11.56;100.00;101770.72;5095824;28;20028;-70
2021/10/11 01:02:55;;;;;;;30.75;15.98;;;;;;;12.00;100.00;101746.88;5079567;28;20016;-70
2021/10/11 01:05:41;;;;;;;30.33;16.25;;;;;;;11.49;100.00;101752.41;5095572;28;20039;-70
2021/10/11 01:08:28;;;;;;;31.15;15.77;;;;;;;10.89;100.00;101752.63;5094797;28;20383;-70
2021/10/11 01:11:14;;;;;;;28.48;15.48;;;;;;;10.93;100.00;101738.63;5079988;28;20088;-70
2021/10/11 01:14:00;;;;;;;36.60;15.38;;;;;;;10.91;100.00;101741.25;5094977;28;20032;-70
2021/10/11 01:16:47;;;;;;;29.63;14.95;;;;;;;10.56;100.00;101739.56;5094968;28;20028;-70
2021/10/11 01:19:33;;;;;;;31.88;15.63;;;;;;;10.25;100.00;101748.31;5079623;28;20433;-71
2021/10/11 01:22:19;;;;;;;29.27;15.55;;;;;;;10.71;100.00;101739.53;5080328;28;20054;-71
2021/10/11 01:25:07;;;;;;;30.95;16.00;;;;;;;10.45;100.00;101738.69;5080358;28;20070;-70
2021/10/11 01:27:53;;;;;;;35.67;17.05;;;;;;;10.69;100.00;101723.81;5080966;28;20028;-70
2021/10/11 01:30:39;;;;;;;28.85;16.25;;;;;;;10.62;100.00;101723.81;5094249;28;20097;-70
2021/10/11 01:33:25;;;;;;;30.52;16.17;;;;;;;10.75;100.00;101720.31;5079656;28;20393;-71
2021/10/11 01:36:11;;;;;;;30.40;17.15;;;;;;;10.74;100.00;101724.69;5079982;28;20028;-70
2021/10/11 01:39:00;;;;;;;32.95;17.25;;;;;;;10.63;100.00;101725.56;5079004;28;20016;-70
2021/10/11 01:41:46;;;;;;;29.92;17.85;;;;;;;10.61;100.00;101714.22;5093869;28;20081;-71
2021/10/11 01:44:32;;;;;;;34.53;18.23;;;;;;;10.99;100.00;101722.84;5093874;28;20024;-71
2021/10/11 01:47:18;;;;;;;32.20;18.77;;;;;;;10.94;100.00;101714.13;5079615;28;20043;-71
2021/10/11 01:50:05;;;;;;;32.88;20.00;;;;;;;11.52;100.00;101708.63;5094294;28;20059;-71
2021/10/11 01:52:51;;;;;;;32.83;20.05;;;;;;;11.08;100.00;101709.72;5079412;28;20023;-71
2021/10/11 01:55:37;;;;;;;35.47;20.10;;;;;;;11.21;100.00;101714.06;5093595;28;20043;-70
2021/10/11 01:58:23;;;;;;;35.22;21.67;;;;;;;11.18;100.00;101720.19;5094826;28;20035;-71
2021/10/11 02:01:09;;;;;;;37.05;20.75;;;;;;;10.59;100.00;101711.59;5093571;28;20028;-71
2021/10/11 02:03:54;;;;;;;34.80;21.45;;;;;;;11.15;100.00;101720.19;5094004;28;20024;-71
2021/10/11 02:06:40;;;;;;;34.58;21.42;;;;;;;11.38;100.00;101706.97;5093900;28;20059;-71
2021/10/11 02:09:26;;;;;;;42.42;21.08;;;;;;;11.40;100.00;101700.81;5094529;28;20086;-71
2021/10/11 02:12:11;;;;;;;36.92;21.67;;;;;;;10.68;100.00;101705.50;5094637;28;20121;-71
2021/10/11 02:14:57;;;;;;;35.25;20.77;;;;;;;10.69;100.00;101691.50;5094108;28;20429;-71
2021/10/11 02:17:43;;;;;;;35.00;21.02;;;;;;;11.44;100.00;101680.69;5092935;28;20074;-70
2021/10/11 02:20:30;;;;;;;35.08;22.25;;;;;;;10.44;100.00;101679.34;5093802;28;20024;-71
2021/10/11 02:23:15;;;;;;;37.22;21.55;;;;;;;10.92;100.00;101687.03;5078816;28;20032;-71
2021/10/11 02:26:01;;;;;;;35.63;21.40;;;;;;;10.74;100.00;101684.50;5093842;28;20368;-71
2021/10/11 02:28:47;;;;;;;37.42;20.90;;;;;;;10.85;100.00;101688.81;5078686;28;20040;-71
2021/10/11 02:31:32;;;;;;;33.55;20.63;;;;;;;10.55;100.00;101691.53;5092917;28;20039;-70
2021/10/11 02:34:18;;;;;;;35.17;19.90;;;;;;;10.62;100.00;101697.63;5094380;28;20036;-71
2021/10/11 02:37:04;;;;;;;36.00;19.50;;;;;;;10.83;100.00;101685.34;5093585;28;20368;-71
2021/10/11 02:39:56;;;;;;;33.92;19.35;;;;;;;10.49;100.00;101688.91;5078858;28;20020;-71
2021/10/11 02:42:42;;;;;;;30.35;18.23;;;;;;;10.55;100.00;101683.66;5097795;28;20436;-71
2021/10/11 02:45:28;;;;;;;32.92;17.98;;;;;;;10.76;100.00;101688.84;5098676;28;20047;-72
2021/10/11 02:48:14;;;;;;;28.00;16.50;;;;;;;11.04;100.00;101690.50;5098018;28;20035;-70
2021/10/11 02:51:00;;;;;;;28.15;16.83;;;;;;;11.05;100.00;101687.00;5097183;28;20032;-71
2021/10/11 02:53:51;;;;;;;27.58;16.63;;;;;;;10.85;100.00;101683.56;5096968;28;20326;-70
2021/10/11 02:56:37;;;;;;;32.08;16.35;;;;;;;10.42;100.00;101679.34;5097697;28;20122;-70
2021/10/11 02:59:23;;;;;;;29.80;16.48;;;;;;;10.34;100.00;101683.69;5082201;28;20028;-70
2021/10/11 03:02:09;;;;;;;31.27;15.93;;;;;;;10.56;100.00;101688.03;5097939;28;20039;-70
2021/10/11 03:04:54;;;;;;;26.95;15.55;;;;;;;10.72;100.00;101678.41;5098352;28;20024;-71
2021/10/11 03:07:40;;;;;;;27.80;16.00;;;;;;;10.90;100.00;101668.72;5097118;28;20044;-71
2021/10/11 03:10:26;;;;;;;26.23;15.52;;;;;;;10.36;100.00;101665.38;5097053;28;20043;-70
2021/10/11 03:13:12;;;;;;;30.88;16.20;;;;;;;10.87;100.00;101645.13;5097312;28;20105;-70
2021/10/11 03:15:58;;;;;;;29.92;15.95;;;;;;;10.68;100.00;101643.44;5081499;28;20032;-71
2021/10/11 03:18:43;;;;;;;28.27;16.10;;;;;;;9.99;100.00;101641.81;5096346;28;20024;-71
2021/10/11 03:21:29;;;;;;;25.52;16.20;;;;;;;10.01;100.00;101634.81;5098062;28;20023;-71
2021/10/11 03:24:15;;;;;;;31.23;16.30;;;;;;;9.90;100.00;101631.31;5082167;28;20081;-71
2021/10/11 03:27:01;;;;;;;28.98;15.88;;;;;;;9.74;100.00;101631.31;5096808;28;20036;-71
2021/10/11 03:29:46;;;;;;;24.40;14.93;;;;;;;9.76;100.00;101629.56;5097564;28;20498;-71
2021/10/11 03:32:32;;;;;;;36.53;15.18;;;;;;;10.13;100.00;101639.22;5097079;28;20170;-71
2021/10/11 03:35:20;;;;;;;30.80;15.35;;;;;;;10.15;100.00;101634.84;5097114;28;20066;-70
2021/10/11 03:38:05;;;;;;;27.23;15.23;;;;;;;9.80;100.00;101634.81;5096819;28;20056;-71
2021/10/11 03:40:51;;;;;;;32.22;15.48;;;;;;;10.45;100.00;101633.91;5097573;28;20097;-71
2021/10/11 03:43:37;;;;;;;33.83;14.85;;;;;;;10.30;100.00;101629.56;5096782;28;20440;-70
2021/10/11 03:46:23;;;;;;;27.23;15.30;;;;;;;10.46;100.00;101630.41;5097333;28;20032;-71
2021/10/11 03:49:08;;;;;;;28.42;15.32;;;;;;;10.42;100.00;101626.03;5096535;28;20028;-71
2021/10/11 03:51:54;;;;;;;25.63;15.15;;;;;;;10.72;100.00;101618.13;5095823;28;20039;-71
2021/10/11 03:54:40;;;;;;;24.50;14.25;;;;;;;10.39;100.00;101616.44;5096835;28;20071;-70
2021/10/11 03:57:26;;;;;;;26.70;15.18;;;;;;;10.75;100.00;101620.69;5096681;28;20360;-70
2021/10/11 04:00:11;;;;;;;25.38;15.25;;;;;;;11.07;100.00;101626.66;5081264;28;20016;-70
2021/10/11 04:02:57;;;;;;;26.05;15.23;;;;;;;10.58;100.00;101626.00;5096309;28;20024;-70
2021/10/11 04:05:43;;;;;;;27.25;15.07;;;;;;;10.68;100.00;101605.91;5095525;28;20043;-71
2021/10/11 04:08:36;;;;;;;24.02;14.30;;;;;;;10.26;100.00;101619.97;5096630;28;20047;-71
2021/10/11 04:11:23;;;;;;;26.77;14.65;;;;;;;10.31;100.00;101618.22;5081336;28;20024;-71
2021/10/11 04:14:09;;;;;;;27.30;14.68;;;;;;;10.26;100.00;101624.34;5095978;28;20117;-71
2021/10/11 04:16:55;;;;;;;26.75;14.57;;;;;;;10.49;100.00;101633.03;5095903;28;20028;-71
2021/10/11 04:19:41;;;;;;;27.75;14.15;;;;;;;10.09;100.00;101635.72;5095316;28;20360;-71
2021/10/11 04:22:26;;;;;;;24.98;13.98;;;;;;;10.25;100.00;101633.97;5096311;28;20032;-71
2021/10/11 04:25:12;;;;;;;28.50;14.50;;;;;;;10.15;100.00;101642.69;5080860;28;20119;-72
2021/10/11 04:27:58;;;;;;;25.45;14.48;;;;;;;9.83;100.00;101628.69;5095824;28;20028;-70
2021/10/11 04:30:44;;;;;;;26.27;14.32;;;;;;;9.73;100.00;101632.22;5095771;28;20371;-70
2021/10/11 04:33:30;;;;;;;22.58;13.25;;;;;;;10.05;100.00;101633.97;5081517;28;20042;-71
2021/10/11 04:36:16;;;;;;;22.55;14.43;;;;;;;10.01;100.00;101641.81;5095047;28;20024;-70
2021/10/11 04:39:02;;;;;;;26.42;14.07;;;;;;;10.49;100.00;101643.50;5095500;28;20115;-71
2021/10/11 04:41:47;;;;;;;25.83;13.48;;;;;;;10.40;100.00;101641.75;5095091;28;20483;-70
2021/10/11 04:44:33;;;;;;;23.70;13.48;;;;;;;10.12;100.00;101634.81;5095131;28;20038;-71
2021/10/11 04:47:19;;;;;;;25.30;13.57;;;;;;;10.48;100.00;101634.75;5095580;28;20116;-72
2021/10/11 04:50:06;;;;;;;27.17;14.40;;;;;;;10.24;100.00;101629.56;5095225;28;20032;-70
2021/10/11 04:52:52;;;;;;;29.02;14.35;;;;;;;10.38;100.00;101629.56;5081283;28;20445;-71
2021/10/11 04:55:37;;;;;;;23.98;13.85;;;;;;;10.14;100.00;101622.63;5095081;28;20118;-71
2021/10/11 04:58:24;;;;;;;34.08;15.30;;;;;;;10.09;100.00;101616.53;5096036;28;20019;-71
2021/10/11 05:01:10;;;;;;;24.58;14.35;;;;;;;10.25;100.00;101620.88;5094966;28;20507;-71
2021/10/11 05:03:56;;;;;;;30.60;15.73;;;;;;;10.43;100.00;101612.94;5095638;28;20097;-71
2021/10/11 05:06:41;;;;;;;41.85;17.73;;;;;;;10.21;100.00;101623.47;5093546;28;20058;-72
2021/10/11 05:09:27;;;;;;;36.65;17.92;;;;;;;10.32;100.00;101621.72;5094607;28;20028;-71
2021/10/11 05:12:14;;;;;;;46.70;18.73;;;;;;;10.52;100.00;101633.03;5094947;28;20356;-70
2021/10/11 05:15:00;;;;;;;38.53;18.48;;;;;;;10.60;100.00;101629.50;5094808;28;20337;-72
2021/10/11 05:17:46;;;;;;;34.97;18.25;;;;;;;10.60;100.00;101626.00;5095444;28;20032;-71
2021/10/11 05:20:34;;;;;;;32.45;16.25;;;;;;;10.23;100.00;101616.47;5079173;28;20088;-70
2021/10/11 05:23:19;;;;;;;40.78;17.23;;;;;;;10.52;100.00;101617.31;5094677;28;20440;-71
2021/10/11 05:26:05;;;;;;;44.75;18.90;;;;;;;10.80;100.00;101616.34;5094636;28;20024;-71
2021/10/11 05:28:51;;;;;;;47.20;19.50;;;;;;;10.53;100.00;101624.28;5094511;28;20330;-72
2021/10/11 05:31:38;;;;;;;58.67;20.75;;;;;;;10.46;100.00;101625.16;5095049;28;20099;-72
2021/10/11 05:34:25;;;;;;;80.57;25.80;;;;;;;10.42;100.00;101629.56;5095186;28;20093;-71
2021/10/11 05:37:11;;;;;;;52.40;24.25;;;;;;;10.56;100.00;101624.28;5078787;28;20110;-71
2021/10/11 05:39:58;;;;;;;55.08;24.75;;;;;;;10.50;100.00;101612.06;5079328;28;20321;-71
2021/10/11 05:42:43;;;;;;;58.13;22.73;;;;;;;10.42;100.00;101612.94;5079140;28;20078;-72
2021/10/11 05:45:29;;;;;;;60.42;23.15;;;;;;;10.83;100.00;101611.06;5094852;28;20019;-71
2021/10/11 05:48:15;;;;;;;69.75;24.77;;;;;;;10.36;100.00;101611.22;5094320;28;20444;-71
2021/10/11 05:51:01;;;;;;;62.53;23.58;;;;;;;10.72;100.00;101603.25;5094321;28;20036;-71
2021/10/11 05:53:47;;;;;;;54.33;23.33;;;;;;;10.53;100.00;101598.09;5094843;28;20038;-72
2021/10/11 05:56:32;;;;;;;47.67;20.90;;;;;;;10.93;100.00;101595.28;5093360;28;20098;-71
2021/10/11 05:59:18;;;;;;;48.42;21.90;;;;;;;11.09;100.00;101594.31;5094282;28;20035;-71
2021/10/11 06:02:04;;;;;;;47.88;20.80;;;;;;;10.91;100.00;101597.03;5079918;28;20103;-71
2021/10/11 06:04:50;;;;;;;28.90;16.40;;;;;;;10.99;100.00;101586.50;5094449;28;20114;-71
2021/10/11 06:07:36;;;;;;;35.75;16.23;;;;;;;11.42;100.00;101607.25;5093594;28;20048;-71
2021/10/11 06:10:22;;;;;;;37.97;15.70;;;;;;;11.34;100.00;101606.41;5095073;28;20024;-71
2021/10/11 06:13:08;;;;;;;27.25;15.32;;;;;;;10.92;100.00;101609.25;5092690;28;20031;-73
2021/10/11 06:15:54;;;;;;;29.80;16.50;;;;;;;11.09;100.00;101594.31;5093850;28;20028;-71
2021/10/11 06:18:40;;;;;;;26.08;14.82;;;;;;;11.59;100.00;101602.75;5094293;28;20020;-71
2021/10/11 06:21:26;;;;;;;37.72;17.85;;;;;;;11.35;100.00;101615.16;5093975;28;20036;-71
2021/10/11 06:24:12;;;;;;;37.95;18.27;;;;;;;11.49;100.00;101621.19;5080426;28;20016;-71
2021/10/11 06:26:58;;;;;;;41.25;19.55;;;;;;;11.54;100.00;101609.75;5093647;28;20114;-70
2021/10/11 06:29:44;;;;;;;45.00;19.88;;;;;;;11.36;100.00;101609.91;5094317;28;20483;-71
2021/10/11 06:32:30;;;;;;;44.70;19.65;;;;;;;11.18;100.00;101599.53;5092626;28;20028;-72
2021/10/11 06:35:16;;;;;;;46.75;20.98;;;;;;;11.50;100.00;101596.69;5079164;28;20032;-72
2021/10/11 06:38:01;;;;;;;43.63;19.80;;;;;;;11.51;100.00;101601.91;5093665;28;20444;-72
2021/10/11 06:40:50;;;;;;;44.50;19.38;;;;;;;11.39;100.00;101598.50;5093545;28;20364;-71
2021/10/11 06:43:36;;;;;;;46.53;19.30;;;;;;;11.09;100.00;101599.56;5093189;28;20043;-72
2021/10/11 06:46:22;;;;;;;36.45;15.68;;;;;;;11.42;100.00;101619.47;5079088;28;20064;-70
2021/10/11 06:49:07;;;;;;;27.80;14.38;;;;;;;11.52;100.00;101611.53;5078959;28;20019;-72
2021/10/11 06:51:53;;;;;;;31.67;14.10;;;;;;;11.73;100.00;101610.53;5078812;28;20020;-71
2021/10/11 06:54:39;;;;;;;29.23;15.60;;;;;;;11.76;100.00;101615.75;5094608;28;20379;-71
2021/10/11 06:57:25;;;;;;;30.23;15.48;;;;;;;12.09;100.00;101615.47;5092540;28;20016;-71
2021/10/11 07:00:11;;;;;;;31.40;16.02;;;;;;;11.74;100.00;101613.13;5079370;28;20051;-72
2021/10/11 07:02:57;;;;;;;38.50;17.17;;;;;;;11.21;100.00;101604.72;5092671;28;20024;-72
2021/10/11 07:05:43;;;;;;;46.45;22.40;;;;;;;11.46;100.00;101606.34;5079873;28;20032;-72
2021/10/11 07:08:29;;;;;;;54.40;21.60;;;;;;;11.54;100.00;101616.78;5077536;28;20391;-72
2021/10/11 07:11:15;;;;;;;66.25;23.25;;;;;;;11.82;100.00;101605.22;5093188;28;20035;-71
2021/10/11 07:14:00;;;;;;;55.47;21.73;;;;;;;11.83;100.00;101604.31;5092636;28;20055;-71
2021/10/11 07:16:47;;;;;;;60.03;24.08;;;;;;;11.71;100.00;101607.03;5093460;28;20405;-71
2021/10/11 07:19:32;;;;;;;69.97;23.65;;;;;;;11.48;100.00;101598.44;5091596;28;20111;-71
2021/10/11 07:22:19;;;;;;;62.60;22.80;;;;;;;11.29;100.00;101591.59;5093452;28;20016;-70
2021/10/11 07:25:04;;;;;;;55.33;23.38;;;;;;;11.57;100.00;101588.75;5093487;28;20106;-71
2021/10/11 07:27:50;;;;;;;57.13;22.73;;;;;;;11.44;100.00;101587.09;5079146;28;20067;-71
2021/10/11 07:30:36;;;;;;;56.83;24.17;;;;;;;11.62;100.00;101578.25;5082172;28;20456;-71
2021/10/11 07:33:23;;;;;;;59.22;23.55;;;;;;;11.11;100.00;101573.31;5096812;28;20024;-72
2021/10/11 07:36:08;;;;;;;53.15;21.60;;;;;;;11.09;100.00;101575.09;5096841;28;20337;-71
2021/10/11 07:38:54;;;;;;;58.42;21.48;;;;;;;11.23;100.00;101579.38;5081693;28;20111;-71
2021/10/11 07:41:40;;;;;;;79.28;35.05;;;;;;;11.36;100.00;101573.16;5081797;28;20024;-71
2021/10/11 07:44:27;;;;;;;65.05;24.63;;;;;;;11.37;100.00;101561.78;5097110;28;20452;-71
2021/10/11 07:47:13;;;;;;;56.42;22.60;;;;;;;11.52;100.00;101566.03;5096328;28;20040;-70
2021/10/11 07:49:59;;;;;;;49.70;22.48;;;;;;;11.47;100.00;101560.84;5080556;28;20028;-71
2021/10/11 07:52:44;;;;;;;63.50;23.88;;;;;;;11.36;100.00;101573.16;5097322;28;20020;-71
2021/10/11 07:55:30;;;;;;;51.17;22.98;;;;;;;11.69;100.00;101577.31;5082469;28;20064;-70
2021/10/11 07:58:16;;;;;;;56.33;22.88;;;;;;;11.48;100.00;101574.81;5080327;28;20039;-71
2021/10/11 08:01:02;;;;;;;40.65;18.50;;;;;;;11.55;100.00;101581.75;5096806;28;20132;-72
2021/10/11 08:03:48;;;;;;;38.15;17.30;;;;;;;11.74;100.00;101589.50;5096545;28;20054;-71
2021/10/11 08:06:34;;;;;;;53.60;21.27;;;;;;;11.87;100.00;101588.53;5096010;28;20420;-71
2021/10/11 08:09:20;;;;;;;50.65;21.30;;;;;;;11.48;100.00;101588.81;5081395;28;20039;-71
2021/10/11 08:12:08;;;;;;;79.28;35.08;;;;;;;11.62;100.00;101599.25;5082407;28;20032;-73
2021/10/11 08:14:54;;;;;;;58.15;25.77;;;;;;;11.94;100.00;101594.59;5081262;28;20368;-70
2021/10/11 08:17:40;;;;;;;51.17;20.75;;;;;;;11.67;100.00;101584.31;5081623;28;20043;-70
2021/10/11 08:20:26;;;;;;;51.42;21.08;;;;;;;11.92;100.00;101586.72;5095221;28;20429;-70
2021/10/11 08:23:12;;;;;;;52.30;22.02;;;;;;;11.75;100.00;101587.75;5096373;28;20027;-71
2021/10/11 08:25:58;;;;;;;53.90;23.23;;;;;;;11.84;100.00;101577.16;5095807;28;20085;-71
2021/10/11 08:28:44;;;;;;;55.50;22.92;;;;;;;11.85;100.00;101577.16;5081056;28;20024;-71
2021/10/11 08:31:30;;;;;;;42.13;20.00;;;;;;;11.91;100.00;101581.50;5082272;28;20028;-70
2021/10/11 08:34:16;;;;;;;61.08;22.60;;;;;;;11.99;100.00;101590.16;5096227;28;20028;-71
2021/10/11 08:37:02;;;;;;;45.40;19.58;;;;;;;12.50;100.00;101581.75;5080854;28;20024;-71
2021/10/11 08:39:48;;;;;;;41.33;19.05;;;;;;;12.03;100.00;101582.25;5096784;28;20102;-71
2021/10/11 08:42:35;;;;;;;32.30;16.23;;;;;;;11.76;100.00;101579.88;5094931;28;20038;-72
2021/10/11 08:45:21;;;;;;;29.67;16.08;;;;;;;11.72;100.00;101575.53;5079687;28;20020;-70
2021/10/11 08:48:06;;;;;;;28.17;15.52;;;;;;;12.35;100.00;101568.78;5081116;28;20028;-71
2021/10/11 08:50:52;;;;;;;29.13;15.63;;;;;;;12.20;100.00;101558.44;5081020;28;20478;-72
2021/10/11 08:53:39;;;;;;;25.63;14.82;;;;;;;12.20;100.00;101571.56;5095568;28;20035;-72
2021/10/11 08:56:25;;;;;;;28.98;15.95;;;;;;;11.94;100.00;101565.72;5093870;28;20039;-71
2021/10/11 08:59:12;;;;;;;33.90;17.35;;;;;;;12.35;100.00;101561.78;5081214;28;20093;-72
2021/10/11 09:02:03;;;;;;;27.80;16.13;;;;;;;12.39;100.00;101557.34;5095317;28;20368;-71
2021/10/11 09:04:56;;;;;;;24.17;16.23;;;;;;;12.79;100.00;101564.75;5095639;28;20169;-71
2021/10/11 09:07:41;;;;;;;26.13;15.77;;;;;;;12.30;100.00;101554.81;5093611;28;20452;-71
2021/10/11 09:10:28;;;;;;;25.65;16.17;;;;;;;11.85;100.00;101553.53;5095682;28;20436;-72
2021/10/11 09:13:14;;;;;;;25.23;15.93;;;;;;;12.35;100.00;101548.63;5095429;28;20036;-73
2021/10/11 09:16:16;;;;;;;31.92;17.52;;;;;;;12.41;100.00;101534.53;5095101;28;20024;-73
2021/10/11 09:19:15;;;;;;;30.15;18.85;;;;;;;12.03;100.00;101539.34;5095149;28;20098;-73
2021/10/11 09:22:02;;;;;;;28.83;19.38;;;;;;;12.43;100.00;101531.03;5078911;28;20106;-73
2021/10/11 09:24:58;;;;;;;37.45;19.30;;;;;;;12.10;100.00;101523.50;5094098;28;20034;-73
2021/10/11 09:27:52;;;;;;;35.00;19.17;;;;;;;12.22;100.00;101530.41;5080944;28;20036;-73
2021/10/11 09:30:41;;;;;;;33.03;19.40;;;;;;;11.96;100.00;101535.91;5095362;28;20419;-73
2021/10/11 09:33:27;;;;;;;35.10;20.45;;;;;;;12.32;100.00;101521.50;5080934;28;20459;-73
2021/10/11 09:36:21;;;;;;;37.20;19.23;;;;;;;12.00;100.00;101527.13;5093611;28;20032;-75
2021/10/11 09:39:07;;;;;;;33.78;18.75;;;;;;;12.53;100.00;101511.59;5093447;28;20024;-73
2021/10/11 09:41:53;;;;;;;35.70;19.15;;;;;;;13.00;100.00;101508.34;5094917;28;20348;-73
2021/10/11 09:44:50;;;;;;;33.75;18.05;;;;;;;12.56;100.00;101519.47;5094545;28;20024;-73
2021/10/11 09:47:37;;;;;;;41.25;22.60;;;;;;;13.05;100.00;101506.50;5080095;28;20067;-74
2021/10/11 09:50:23;;;;;;;38.80;19.80;;;;;;;13.20;100.00;101503.66;5078282;28;20028;-73
2021/10/11 09:53:11;;;;;;;34.90;18.55;;;;;;;13.11;100.00;101503.81;5094272;28;20089;-73
2021/10/11 09:55:57;;;;;;;31.88;17.48;;;;;;;13.22;100.00;101507.16;5093861;28;20448;-73
2021/10/11 09:58:43;;;;;;;35.10;17.90;;;;;;;13.49;100.00;101488.25;5094710;28;20068;-72
2021/10/11 10:01:31;;;;;;;27.20;15.68;;;;;;;14.00;100.00;101484.69;5092875;28;20102;-74
2021/10/11 10:04:22;;;;;;;31.90;16.00;;;;;;;14.51;100.00;101481.88;5066514;28;20036;-73
2021/10/11 10:07:11;;;;;;;26.92;15.80;;;;;;;14.02;100.00;101470.59;5079066;28;20051;-73
2021/10/11 10:09:57;;;;;;;28.55;17.05;;;;;;;14.04;100.00;101457.38;5079631;28;20137;-72
2021/10/11 10:12:46;;;;;;;31.80;16.67;;;;;;;13.39;100.00;101447.22;5080635;28;20059;-74
2021/10/11 10:15:35;;;;;;;34.35;17.02;;;;;;;13.76;100.00;101443.88;5080242;28;20105;-73
2021/10/11 10:18:21;;;;;;;28.45;17.52;;;;;;;13.83;100.00;101440.22;5093444;28;20024;-72
2021/10/11 10:21:08;;;;;;;35.28;17.60;;;;;;;13.54;100.00;101424.09;5093946;28;20172;-74
2021/10/11 10:23:56;;;;;;;30.27;17.23;;;;;;;13.85;100.00;101417.38;5095587;28;20398;-74
2021/10/11 10:26:42;;;;;;;26.63;16.13;;;;;;;13.78;100.00;101420.13;5094864;28;20032;-73
2021/10/11 10:29:28;;;;;;;28.00;16.98;;;;;;;13.44;100.00;101405.88;5078164;28;20459;-73
2021/10/11 10:32:18;;;;;;;36.67;18.63;;;;;;;13.30;100.00;101407.91;5094610;28;20024;-74
2021/10/11 10:35:04;;;;;;;31.58;17.58;;;;;;;12.98;100.00;101405.78;5079718;28;20028;-74
2021/10/11 10:37:50;;;;;;;27.35;16.33;;;;;;;12.79;100.00;101392.94;5079687;28;20186;-73
2021/10/11 10:40:36;;;;;;;33.20;16.83;;;;;;;12.80;100.00;101395.53;5094342;28;20115;-73
2021/10/11 10:43:22;;;;;;;29.20;18.02;;;;;;;12.78;100.00;101393.84;5093004;28;20090;-74
2021/10/11 10:46:09;;;;;;;30.65;18.45;;;;;;;12.95;100.00;101384.75;5093434;28;20024;-73
2021/10/11 10:48:55;;;;;;;38.97;18.83;;;;;;;12.69;100.00;101375.53;5077638;28;20125;-73
2021/10/11 10:51:42;;;;;;;31.67;16.58;;;;;;;12.58;100.00;101377.50;5079770;28;20028;-73
2021/10/11 10:54:39;;;;;;;27.48;18.40;;;;;;;12.63;100.00;101379.16;5095476;28;20110;-73
2021/10/11 10:57:27;;;;;;;28.85;18.65;;;;;;;12.49;100.00;101370.59;5093523;28;20039;-73
2021/10/11 11:00:17;;;;;;;29.92;17.92;;;;;;;12.48;100.00;101368.00;5080613;28;20110;-73
2021/10/11 11:03:03;;;;;;;33.38;17.27;;;;;;;12.52;100.00;101365.31;5082460;28;20321;-73
2021/10/11 11:05:51;;;;;;;29.60;17.30;;;;;;;12.54;100.00;101355.63;5097949;28;20367;-72
2021/10/11 11:08:37;;;;;;;35.38;17.23;;;;;;;12.49;100.00;101343.44;5096065;28;20039;-72
2021/10/11 11:11:23;;;;;;;37.75;18.58;;;;;;;12.56;100.00;101345.97;5098755;28;20032;-73
2021/10/11 11:14:12;;;;;;;36.40;17.15;;;;;;;12.48;100.00;101345.22;5097436;28;20455;-74
2021/10/11 11:16:58;;;;;;;30.23;17.40;;;;;;;12.54;100.00;101333.75;5082659;28;20028;-73
2021/10/11 11:19:44;;;;;;;28.65;16.90;;;;;;;12.61;100.00;101332.72;5097195;28;20033;-73
2021/10/11 11:22:32;;;;;;;28.45;18.80;;;;;;;12.57;100.00;101324.03;5097669;28;20107;-73
2021/10/11 11:25:26;;;;;;;31.77;19.58;;;;;;;12.60;100.00;101321.38;5096744;28;20028;-72
2021/10/11 11:28:17;;;;;;;32.28;19.85;;;;;;;12.70;100.00;101322.94;5097910;28;20107;-73
2021/10/11 11:31:06;;;;;;;34.20;20.23;;;;;;;12.74;100.00;101308.84;5081171;28;20463;-73
2021/10/11 11:33:52;;;;;;;32.88;19.88;;;;;;;12.82;100.00;101295.59;5097337;28;20043;-73
2021/10/11 11:36:51;;;;;;;29.50;19.90;;;;;;;12.81;100.00;101302.59;5095935;28;20027;-73
2021/10/11 11:39:37;;;;;;;29.58;19.05;;;;;;;13.06;100.00;101303.94;5097093;28;20458;-72
2021/10/11 11:42:29;;;;;;;34.05;18.58;;;;;;;12.85;100.00;101300.78;5095989;28;20044;-72
2021/10/11 11:45:17;;;;;;;32.63;18.90;;;;;;;13.09;100.00;101303.00;5097254;28;20101;-73
2021/10/11 11:48:24;;;;;;;37.03;20.80;;;;;;;12.99;100.00;101296.19;5097050;28;20028;-72
2021/10/11 11:51:13;;;;;;;40.63;20.70;;;;;;;12.98;100.00;101297.09;5082937;28;20063;-74
2021/10/11 11:54:00;;;;;;;41.28;22.73;;;;;;;13.11;100.00;101296.81;5096902;28;20066;-72
2021/10/11 11:56:54;;;;;;;36.80;23.98;;;;;;;13.34;100.00;101296.41;5082609;28;20109;-73
2021/10/11 11:59:40;;;;;;;38.40;23.98;;;;;;;13.56;100.00;101297.69;5082215;28;20039;-73
2021/10/11 12:02:26;;;;;;;34.13;21.35;;;;;;;13.51;100.00;101287.25;5096335;28;20144;-74
2021/10/11 12:05:15;;;;;;;34.55;20.48;;;;;;;13.77;100.00;101294.59;5095790;28;20172;-73
2021/10/11 12:08:01;;;;;;;33.53;19.55;;;;;;;14.00;100.00;101287.97;5095818;28;20052;-72
2021/10/11 12:10:57;;;;;;;33.15;21.17;;;;;;;13.82;100.00;101285.72;5082190;28;20132;-72
2021/10/11 12:13:44;;;;;;;36.33;20.35;;;;;;;13.85;100.00;101290.03;5094812;28;20032;-72
2021/10/11 12:16:31;;;;;;;38.05;22.25;;;;;;;13.78;100.00;101291.94;5094915;28;20063;-71
2021/10/11 12:19:26;;;;;;;33.70;20.17;;;;;;;13.75;100.00;101293.78;5096110;28;20017;-72
2021/10/11 12:22:12;;;;;;;31.67;20.30;;;;;;;14.00;100.00;101287.97;5094787;28;20051;-74
2021/10/11 12:25:04;;;;;;;35.63;20.90;;;;;;;14.32;100.00;101284.63;5095951;28;20036;-73
2021/10/11 12:27:50;;;;;;;38.30;20.80;;;;;;;14.39;100.00;101281.78;5096533;28;20024;-73
2021/10/11 12:30:36;;;;;;;31.67;20.92;;;;;;;14.12;100.00;101271.84;5096201;28;20032;-73